Decoded Metar for KEEN (KEENE/DILLANT in NH, USA) (IATA:EEN) | Meteo·Mobile Aviation Weather
aviador You're here:

KEEN Decoded Metar

KEENE/DILLANT in NH, USA
Report Time2018-10-23 21:56:00
UTC Time2018-10-23 22:29:48
Flight Rules vfr VFR
WindCalm
Visibility9999 m
Phenomena:N/A
Clouds:Broken 035 Hf
Expected CloudBase > 400 ft AGL from Temp-Dew spread
Ceiling3,500 ft
Temp07°C (ISA -7)
Dew Point06°C (93% RH)
AAT6.1°C
QNH1013 hPa
Density Alt-226 ft
Elevation489 ft
Report Wrong Elevation
Raw Report
KEEN 232156Z AUTO 00000KT 10SM BKN035 07/06 A2991 RMK AO2 LTG DSNT
E SLP148 T00670061 $=

Extra information for KEEN:More info

Metar Taf Metar & Taf Last 4 Metars F.Rules Stats Wind Profile Meteogram Temp Stats Airport Information Weather charts Add Link Nearby VenuesMetar ALERT Operation Metar Decoded Social comments

AIRNAV info for KEEN